Kenneth S. Settoon — WDD7467 — position and weather

sailwx.info

Track history (hours):
 
Tides and Currents Weather Stations Pressure Air Temp Water Temp Dewpoint Dewpoint Depression Visibility Wind Speed Wind Dir Waves Ship Positions

Kenneth S. Settoon

Owner: Settoon Towing, L.L.C., Pierre Part, LA. More information available from US FCC via Universal Licensing System and Coast Guard Vessel Documentation Center.

Last reported at 2017-Nov-04 04:02 UTC. Time now 2017-Nov-19 18:10 UTC.
Position N 29°32' W 090°48'.
Warning: this ship's position is 15 days out of date.

Length 14 m; draft 3 m.

Type: Tug. MMSI: 367186840.

Date/timePositionNaut miles runAvg speedWind from/ knotsBaromVisibWave heightAir tempDewpointWater temp
2017-Nov-04 04:02N 29°32' W 090°48'0 7.0
2017-Nov-04 04:00N 29°32' W 090°47'3 6.0
2017-Nov-04 03:31N 29°34' W 090°45'2 4.1
2017-Nov-04 03:01N 29°35' W 090°43'2 3.7
2017-Nov-04 02:30N 29°37' W 090°42'2 2.4
2017-Nov-04 01:37N 29°36' W 090°40'0 0.1
2017-Nov-04 01:30N 29°36' W 090°40'0 0.0
2017-Nov-04 00:53N 29°36' W 090°40'0 0.6
2017-Nov-04 00:30N 29°36' W 090°39'5 6.2
2017-Nov-03 23:46N 29°34' W 090°34'1 0.1
2017-Nov-03 10:11N 29°35' W 090°35'1 5.1
2017-Nov-03 10:00N 29°35' W 090°36'1 1.2
2017-Nov-03 09:30N 29°35' W 090°37'0 0.0
2017-Nov-03 09:00N 29°35' W 090°37'2 3.1
2017-Nov-03 08:24N 29°36' W 090°39'1 1.5
2017-Nov-03 07:59N 29°36' W 090°40'0 0.0
2017-Nov-03 07:28N 29°36' W 090°40'0 0.0
2017-Nov-03 07:00N 29°36' W 090°40'0 0.0
2017-Nov-03 06:21N 29°36' W 090°40'1 3.9
2017-Nov-03 06:00N 29°36' W 090°41'2 4.2
2017-Nov-03 05:30N 29°35' W 090°43'0 0.4
2017-Nov-03 05:00N 29°35' W 090°43'1 2.4
2017-Nov-03 04:31N 29°34' W 090°43'3 6.0
2017-Nov-03 04:00N 29°31' W 090°43'3 0.1
2017-Nov-02 08:37N 29°28' W 090°43'1 7.1
2017-Nov-02 08:28N 29°29' W 090°43'3 7.1
2017-Nov-02 08:01N 29°32' W 090°42'3 6.5
2017-Nov-02 07:30N 29°35' W 090°43'2 4.5
2017-Nov-02 07:00N 29°36' W 090°40'1 0.1
2017-Nov-02 01:59N 29°36' W 090°40'2 5.2
2017-Nov-02 01:30N 29°37' W 090°42'3 5.8
2017-Nov-02 01:01N 29°34' W 090°43'3 6.4
2017-Nov-02 00:30N 29°31' W 090°43'  
2017-Oct-30 17:18N 29°28' W 090°43'2 7.1
2017-Oct-30 17:00N 29°30' W 090°43'3 7.0
2017-Oct-30 16:31N 29°33' W 090°42'2 3.5
2017-Oct-30 16:01N 29°35' W 090°43'2 3.7
2017-Oct-30 15:31N 29°37' W 090°42'3 2.2
2017-Oct-30 14:20N 29°36' W 090°40'0 0.0
2017-Oct-30 04:49N 29°36' W 090°40'1 4.0
2017-Oct-30 04:31N 29°35' W 090°38'3 5.3
2017-Oct-30 03:59N 29°35' W 090°35'0 0.0
2017-Oct-29 03:49N 29°35' W 090°35'0 0.0
2017-Oct-27 23:47N 29°35' W 090°36'2 6.5
2017-Oct-27 23:30N 29°35' W 090°38'2 2.4
2017-Oct-27 22:37N 29°36' W 090°40'0 0.1
2017-Oct-27 22:19N 29°36' W 090°40'0 0.0
2017-Oct-27 21:54N 29°36' W 090°40'0 0.6
2017-Oct-27 21:30N 29°36' W 090°40'3 5.1
2017-Oct-27 21:00N 29°35' W 090°37'1 0.1
2017-Oct-27 01:48N 29°35' W 090°35'2 6.1
2017-Oct-27 01:29N 29°35' W 090°38'3 6.5
2017-Oct-27 01:00N 29°36' W 090°41'2 4.4
2017-Oct-27 00:30N 29°35' W 090°43'3 6.3
2017-Oct-27 00:00N 29°33' W 090°45'3 6.9
2017-Oct-26 23:30N 29°32' W 090°49'0 0.0
2017-Oct-26 01:29N 29°32' W 090°50'3 6.5
2017-Oct-26 01:00N 29°32' W 090°46'3 5.8
2017-Oct-26 00:30N 29°34' W 090°44'3 5.9
2017-Oct-26 00:00N 29°37' W 090°42'1 1.6
2017-Oct-25 23:30N 29°37' W 090°41'1 1.6
2017-Oct-25 23:00N 29°36' W 090°41'1 0.7
2017-Oct-25 21:26N 29°36' W 090°40'2 5.6
2017-Oct-25 21:00N 29°35' W 090°37'  
Track history (hours):
 
Tides and Currents Weather Stations Pressure Air Temp Water Temp Dewpoint Dewpoint Depression Visibility Wind Speed Wind Dir Waves Ship Positions

Kenneth S. Settoon

Owner: Settoon Towing, L.L.C., Pierre Part, LA. More information available from US FCC via Universal Licensing System and Coast Guard Vessel Documentation Center.

Last reported at 2017-Nov-04 04:02 UTC. Time now 2017-Nov-19 18:10 UTC.
Position N 29°32' W 090°48'.
Warning: this ship's position is 15 days out of date.

Length 14 m; draft 3 m.

Type: Tug. MMSI: 367186840.

Date/timePositionNaut miles runAvg speedWind from/ knotsBaromVisibWave heightAir tempDewpointWater temp
2017-Nov-04 04:02N 29°32' W 090°48'0 7.0
2017-Nov-04 04:00N 29°32' W 090°47'3 6.0
2017-Nov-04 03:31N 29°34' W 090°45'2 4.1
2017-Nov-04 03:01N 29°35' W 090°43'2 3.7
2017-Nov-04 02:30N 29°37' W 090°42'2 2.4
2017-Nov-04 01:37N 29°36' W 090°40'0 0.1
2017-Nov-04 01:30N 29°36' W 090°40'0 0.0
2017-Nov-04 00:53N 29°36' W 090°40'0 0.6
2017-Nov-04 00:30N 29°36' W 090°39'5 6.2
2017-Nov-03 23:46N 29°34' W 090°34'1 0.1
2017-Nov-03 10:11N 29°35' W 090°35'1 5.1
2017-Nov-03 10:00N 29°35' W 090°36'1 1.2
2017-Nov-03 09:30N 29°35' W 090°37'0 0.0
2017-Nov-03 09:00N 29°35' W 090°37'2 3.1
2017-Nov-03 08:24N 29°36' W 090°39'1 1.5
2017-Nov-03 07:59N 29°36' W 090°40'0 0.0
2017-Nov-03 07:28N 29°36' W 090°40'0 0.0
2017-Nov-03 07:00N 29°36' W 090°40'0 0.0
2017-Nov-03 06:21N 29°36' W 090°40'1 3.9
2017-Nov-03 06:00N 29°36' W 090°41'2 4.2
2017-Nov-03 05:30N 29°35' W 090°43'0 0.4
2017-Nov-03 05:00N 29°35' W 090°43'1 2.4
2017-Nov-03 04:31N 29°34' W 090°43'3 6.0
2017-Nov-03 04:00N 29°31' W 090°43'3 0.1
2017-Nov-02 08:37N 29°28' W 090°43'1 7.1
2017-Nov-02 08:28N 29°29' W 090°43'3 7.1
2017-Nov-02 08:01N 29°32' W 090°42'3 6.5
2017-Nov-02 07:30N 29°35' W 090°43'2 4.5
2017-Nov-02 07:00N 29°36' W 090°40'1 0.1
2017-Nov-02 01:59N 29°36' W 090°40'2 5.2
2017-Nov-02 01:30N 29°37' W 090°42'3 5.8
2017-Nov-02 01:01N 29°34' W 090°43'3 6.4
2017-Nov-02 00:30N 29°31' W 090°43'  
2017-Oct-30 17:18N 29°28' W 090°43'2 7.1
2017-Oct-30 17:00N 29°30' W 090°43'3 7.0
2017-Oct-30 16:31N 29°33' W 090°42'2 3.5
2017-Oct-30 16:01N 29°35' W 090°43'2 3.7
2017-Oct-30 15:31N 29°37' W 090°42'3 2.2
2017-Oct-30 14:20N 29°36' W 090°40'0 0.0
2017-Oct-30 04:49N 29°36' W 090°40'1 4.0
2017-Oct-30 04:31N 29°35' W 090°38'3 5.3
2017-Oct-30 03:59N 29°35' W 090°35'0 0.0
2017-Oct-29 03:49N 29°35' W 090°35'0 0.0
2017-Oct-27 23:47N 29°35' W 090°36'2 6.5
2017-Oct-27 23:30N 29°35' W 090°38'2 2.4
2017-Oct-27 22:37N 29°36' W 090°40'0 0.1
2017-Oct-27 22:19N 29°36' W 090°40'0 0.0
2017-Oct-27 21:54N 29°36' W 090°40'0 0.6
2017-Oct-27 21:30N 29°36' W 090°40'3 5.1
2017-Oct-27 21:00N 29°35' W 090°37'1 0.1
2017-Oct-27 01:48N 29°35' W 090°35'2 6.1
2017-Oct-27 01:29N 29°35' W 090°38'3 6.5
2017-Oct-27 01:00N 29°36' W 090°41'2 4.4
2017-Oct-27 00:30N 29°35' W 090°43'3 6.3
2017-Oct-27 00:00N 29°33' W 090°45'3 6.9
2017-Oct-26 23:30N 29°32' W 090°49'0 0.0
2017-Oct-26 01:29N 29°32' W 090°50'3 6.5
2017-Oct-26 01:00N 29°32' W 090°46'3 5.8
2017-Oct-26 00:30N 29°34' W 090°44'3 5.9
2017-Oct-26 00:00N 29°37' W 090°42'1 1.6
2017-Oct-25 23:30N 29°37' W 090°41'1 1.6
2017-Oct-25 23:00N 29°36' W 090°41'1 0.7
2017-Oct-25 21:26N 29°36' W 090°40'2 5.6
2017-Oct-25 21:00N 29°35' W 090°37'  

Dump ship's entire track history